Bejou, Minnesota
Current Conditions -  °F | °C
As of 2:55 PM on Saturday 22 Nov 2014 (Local Time) from K3N8 Reporting Station
Clear Clear  
Wind Chill: 39°   Ceiling: Unl
Heat Index: 43°   Visibility: 10mi
Dew Point: 32°   Wind: 6mph
Humidity: 65%   Direction: 150°SSE
Pressure: 29.48"   Gusts: NA
Location:  47.44°N, 95.98°W
Report Text: K3N8 222055Z AUTO 15005KT 10SM CLR 06/00 A2948 RMK AO2 T00601002
Loading
Personal Weather Stations






























Interactive Weather Map New forecast layout! Learn more

10-Day Weather Forecast

Advertisements
Track Severe Weather on mobile